Meath Environmental Platform

Observations for Trim Patrick St

Time AQI Temp °C Hum % Pres Pa CO μg/m³ H₂S μg/m³ NO μg/m³ NO₂ μg/m³ O₃ μg/m³ SO₂ μg/m³ PM1 μg/m³ PM2.5 μg/m³ PM10 μg/m³
Wednesday 5 August 2026
17:44 2 24.1 50 69,738 0 0 2.46 10.79 54.99 6.17 2 7.19 7.91
17:43 2 24.2 50 69,573 0 0 2.46 7.51 42.88 6.61 2 6.39 7.03
17:42 2 24.3 50 69,505 0 0 2.39 5.02 31.23 6.55 2.86 7.21 7.93
17:40 2 24.4 48 69,493 0 0 2.22 9.24 36.08 6.23 2 6.52 7.17
17:38 2 24.6 48 69,497 0.06 0 2.23 10.35 31.41 6.32 2.86 8.05 8.86
17:37 2 24.6 49 69,539 0.16 0 2.3 9.17 25.37 5.56 2 7.22 7.94
17:36 2 24.5 49 69,620 0.14 0 2.28 11.82 36.95 6.37 6.29 11.08 12.18
17:35 2 24.4 49 69,730 0.11 0 2.35 5.13 25.76 5.94 2 6.45 7.1
17:34 2 24.3 51 69,879 0.1 0 2.47 12.25 33.02 4.79 2 6.34 6.97
17:33 2 24.2 51 70,003 0.11 0 2.55 7.3 32.17 6.32 2.86 7.09 7.8
17:32 2 24.1 52 70,237 0.1 0 2.72 12.36 52.72 5.5 2 7.06 7.77
17:31 2 23.9 52 70,427 0.11 0 2.74 6.6 31.07 5.78 2 6.32 6.95
17:28 2 23.5 51 71,305 0.06 0 2.83 11.44 36.19 4.14 2 7.12 7.84
17:27 2 23.4 54 71,658 0.04 0 3.33 11.82 36.27 5.72 2 6.17 6.78
17:26 2 23.2 53 72,067 0 0 3.01 12.41 48.34 4.24 2 6.22 6.85
17:23 2 22.6 55 73,445 0 0 2.98 12.08 49.9 4.44 2 6.08 6.69
17:22 2 22.4 56 73,931 0 0 2.96 13.25 68.42 4.52 2 6.04 6.65
17:21 2 22.2 57 74,351 0 0.78 3.15 12.9 64.57 4.09 2 5.95 6.54
17:19 2 21.6 59 74,656 0 6.48 3.23 17.22 73.15 3.7 2 5.87 6.46
17:15 2 21.1 57 74,603 0 5.87 2.8 12.48 78.93 4.08 2 6.73 7.41